Time;durP1;ratioP1;P1;durP2;ratioP2;P2;SDS_P1;SDS_P2;PMS_P1;PMS_P2;Temp;Humidity;BMP_temperature;BMP_pressure;BME280_temperature;BME280_humidity;BME280_pressure;Samples;Min_cycle;Max_cycle;Signal;HPM_P1;HPM_P2
2022/03/01 00:01:11;;;;;;;3.60;3.40;;;18.20;38.30;;;;;;5043651;28;20590;-59
2022/03/01 00:03:37;;;;;;;3.27;3.07;;;18.20;38.30;;;;;;5041764;28;20563;-59
2022/03/01 00:06:02;;;;;;;3.70;3.40;;;18.20;38.30;;;;;;5048813;28;20423;-59
2022/03/01 00:08:28;;;;;;;3.50;3.30;;;18.20;38.30;;;;;;5045374;28;20614;-59
2022/03/01 00:10:54;;;;;;;3.40;3.20;;;18.20;38.30;;;;;;5052298;28;20222;-59
2022/03/01 00:13:19;;;;;;;3.77;3.57;;;18.20;38.30;;;;;;5046680;28;20745;-59
2022/03/01 00:15:45;;;;;;;3.03;2.83;;;18.20;38.30;;;;;;5045540;28;20223;-59
2022/03/01 00:18:11;;;;;;;3.10;2.90;;;18.20;38.30;;;;;;5044055;28;20227;-59
2022/03/01 00:20:36;;;;;;;3.30;3.10;;;18.20;39.10;;;;;;5042910;28;20222;-58
2022/03/01 00:23:02;;;;;;;4.17;3.87;;;18.20;38.30;;;;;;5043335;28;20223;-59
2022/03/01 00:25:28;;;;;;;3.57;3.37;;;18.20;38.30;;;;;;5042832;28;20215;-59
2022/03/01 00:27:53;;;;;;;3.43;3.23;;;18.20;38.30;;;;;;5042612;28;20891;-60
2022/03/01 00:30:19;;;;;;;3.80;3.60;;;18.20;38.30;;;;;;5047511;28;20310;-59
2022/03/01 00:32:45;;;;;;;4.20;3.90;;;18.20;38.30;;;;;;5053642;28;20243;-59
2022/03/01 00:35:11;;;;;;;3.90;3.60;;;18.20;38.30;;;;;;5046824;28;20211;-59
2022/03/01 00:37:36;;;;;;;3.50;3.30;;;18.20;38.30;;;;;;5047191;28;20223;-59
2022/03/01 00:40:04;;;;;;;3.87;3.67;;;18.20;38.30;;;;;;5044433;28;20699;-58
2022/03/01 00:42:30;;;;;;;3.60;3.30;;;18.20;38.30;;;;;;5042540;28;20226;-59
2022/03/01 00:44:55;;;;;;;3.30;3.10;;;18.10;38.20;;;;;;5046183;28;20415;-59
2022/03/01 00:47:21;;;;;;;3.37;3.17;;;18.20;38.30;;;;;;5040725;28;20211;-58
2022/03/01 00:49:46;;;;;;;3.90;3.60;;;18.10;38.10;;;;;;5043984;28;20678;-58
2022/03/01 00:52:12;;;;;;;3.50;3.20;;;18.10;38.10;;;;;;5046042;28;20590;-59
2022/03/01 00:54:38;;;;;;;3.10;3.00;;;18.10;38.10;;;;;;5044613;28;20237;-58
2022/03/01 00:57:05;;;;;;;3.97;3.67;;;18.10;38.20;;;;;;5045071;28;20226;-58
2022/03/01 00:59:31;;;;;;;3.37;3.17;;;18.10;38.20;;;;;;5045538;28;20246;-58
2022/03/01 01:01:57;;;;;;;3.73;3.43;;;18.10;38.20;;;;;;5040805;28;20533;-58
2022/03/01 01:04:22;;;;;;;4.00;3.80;;;18.10;38.10;;;;;;5041490;28;20245;-58
2022/03/01 01:06:48;;;;;;;3.60;3.40;;;18.10;38.10;;;;;;5044685;28;20300;-58
2022/03/01 01:09:14;;;;;;;3.80;3.60;;;18.10;38.20;;;;;;5044651;28;20246;-58
2022/03/01 01:11:41;;;;;;;3.57;3.37;;;18.10;38.10;;;;;;5042243;28;20677;-58
2022/03/01 01:14:07;;;;;;;3.90;3.70;;;18.10;38.20;;;;;;5044106;28;20746;-59
2022/03/01 01:16:32;;;;;;;3.30;3.10;;;18.10;38.20;;;;;;5046437;28;20464;-58
2022/03/01 01:18:58;;;;;;;3.53;3.33;;;18.10;38.10;;;;;;5036217;28;20265;-59
2022/03/01 01:22:39;;;;;;;3.40;3.20;;;18.10;38.20;;;;;;5039492;28;20215;-61
2022/03/01 01:24:09;;;;;;;3.83;3.63;;;18.10;38.10;;;;;;5044107;28;20222;-58
2022/03/01 01:26:34;;;;;;;4.03;3.83;;;18.10;38.20;;;;;;5041844;28;20509;-58
2022/03/01 01:29:00;;;;;;;3.90;3.60;;;18.10;38.10;;;;;;5046422;28;20218;-58
2022/03/01 01:31:26;;;;;;;3.83;3.63;;;18.10;38.20;;;;;;5046645;28;20233;-59
2022/03/01 01:33:51;;;;;;;3.93;3.63;;;18.10;38.10;;;;;;5044085;28;20219;-58
2022/03/01 01:36:17;;;;;;;5.60;3.50;;;18.10;38.20;;;;;;5039417;28;20707;-58
2022/03/01 01:38:42;;;;;;;3.50;3.30;;;18.10;38.20;;;;;;5047974;28;20215;-58
2022/03/01 01:41:08;;;;;;;3.47;3.17;;;18.10;38.10;;;;;;5041250;28;20231;-58
2022/03/01 01:43:33;;;;;;;4.40;4.10;;;18.10;38.10;;;;;;5046004;28;20229;-58
2022/03/01 01:45:59;;;;;;;3.80;3.60;;;18.10;38.10;;;;;;5043789;28;20253;-58
2022/03/01 01:48:25;;;;;;;3.87;3.67;;;18.10;38.10;;;;;;5043726;28;20223;-58
2022/03/01 01:50:50;;;;;;;3.33;3.13;;;18.10;38.10;;;;;;5040701;28;20766;-59
2022/03/01 01:53:16;;;;;;;3.80;3.60;;;18.10;38.10;;;;;;5043571;28;20268;-58
2022/03/01 01:55:42;;;;;;;3.33;3.13;;;18.10;38.10;;;;;;5044927;28;20221;-58
2022/03/01 01:58:07;;;;;;;3.87;3.67;;;18.10;38.10;;;;;;5045480;28;20624;-58
2022/03/01 02:00:33;;;;;;;3.93;3.63;;;18.10;38.10;;;;;;5045657;28;20218;-58
2022/03/01 02:02:59;;;;;;;3.70;3.50;;;18.10;38.10;;;;;;5037770;28;20264;-59
2022/03/01 02:05:26;;;;;;;3.33;3.10;;;18.10;38.10;;;;;;5037992;28;20226;-59
2022/03/01 02:07:51;;;;;;;3.60;3.40;;;18.10;38.10;;;;;;5046387;28;20215;-58
2022/03/01 02:10:17;;;;;;;3.70;3.50;;;18.10;38.10;;;;;;5044230;28;20419;-58
2022/03/01 02:12:44;;;;;;;3.93;3.73;;;18.10;38.10;;;;;;5045860;28;20631;-58
2022/03/01 02:15:10;;;;;;;3.80;3.53;;;18.10;38.10;;;;;;5040679;28;20218;-59
2022/03/01 02:17:39;;;;;;;4.00;3.70;;;18.10;38.10;;;;;;5045300;28;20533;-59
2022/03/01 02:20:17;;;;;;;3.80;3.60;;;18.10;38.10;;;;;;5037409;28;20549;-59
2022/03/01 02:22:43;;;;;;;3.40;3.20;;;18.10;38.10;;;;;;5040892;28;20559;-58
2022/03/01 02:25:09;;;;;;;3.87;3.67;;;18.10;38.20;;;;;;5042069;28;20520;-58
2022/03/01 02:27:35;;;;;;;3.37;3.17;;;18.10;38.10;;;;;;5042111;28;20219;-59
2022/03/01 02:30:02;;;;;;;3.33;3.13;;;18.10;38.10;;;;;;5042237;28;20443;-59
2022/03/01 02:32:28;;;;;;;3.43;3.23;;;18.10;38.10;;;;;;5047060;28;20426;-59
2022/03/01 02:34:54;;;;;;;4.20;3.90;;;18.10;38.10;;;;;;5046248;28;20438;-59
2022/03/01 02:37:19;;;;;;;3.77;3.47;;;18.10;38.00;;;;;;5047001;28;20246;-59
2022/03/01 02:39:45;;;;;;;4.10;3.80;;;18.10;38.10;;;;;;5047607;28;20235;-59
2022/03/01 02:42:11;;;;;;;3.40;3.20;;;18.10;38.10;;;;;;5045893;28;20218;-59
2022/03/01 02:44:37;;;;;;;3.60;3.40;;;18.10;38.10;;;;;;5050169;28;20237;-59
2022/03/01 02:47:03;;;;;;;3.93;3.63;;;18.10;38.10;;;;;;5046875;28;20273;-58
2022/03/01 02:49:28;;;;;;;4.07;3.87;;;18.10;38.10;;;;;;5048357;28;20217;-59
2022/03/01 02:51:54;;;;;;;3.80;3.60;;;18.10;38.10;;;;;;5047034;28;20456;-60
2022/03/01 02:54:19;;;;;;;4.33;3.50;;;18.10;38.10;;;;;;5046382;28;20726;-59
2022/03/01 02:56:45;;;;;;;3.50;3.30;;;18.10;38.00;;;;;;5041022;28;20237;-58
2022/03/01 02:59:10;;;;;;;2.93;2.77;;;18.10;38.00;;;;;;5044576;28;20260;-58
2022/03/01 03:01:36;;;;;;;3.30;3.10;;;18.10;38.00;;;;;;5048130;28;20238;-59
2022/03/01 03:04:02;;;;;;;3.43;3.23;;;18.10;38.00;;;;;;5043707;28;20253;-58
2022/03/01 03:06:27;;;;;;;3.60;3.40;;;18.10;38.00;;;;;;5048414;28;20668;-59
2022/03/01 03:08:53;;;;;;;3.17;2.97;;;18.10;38.00;;;;;;5049058;28;20271;-58
2022/03/01 03:11:19;;;;;;;3.80;3.60;;;18.10;38.00;;;;;;5041283;28;20234;-58
2022/03/01 03:13:44;;;;;;;3.90;3.70;;;18.10;38.00;;;;;;5047570;28;20259;-58
2022/03/01 03:16:10;;;;;;;3.27;3.07;;;18.10;38.00;;;;;;5045683;28;20325;-58
2022/03/01 03:18:38;;;;;;;3.50;3.30;;;18.10;37.90;;;;;;5042977;28;20204;-59
2022/03/01 03:21:04;;;;;;;3.47;3.27;;;18.10;38.00;;;;;;5043438;28;20617;-58
2022/03/01 03:23:30;;;;;;;3.50;3.30;;;18.10;37.90;;;;;;5045516;28;20958;-59
2022/03/01 03:25:55;;;;;;;3.40;3.20;;;18.00;37.90;;;;;;5042547;28;20477;-59
2022/03/01 03:28:21;;;;;;;3.17;2.97;;;18.10;38.00;;;;;;5047167;28;20222;-59
2022/03/01 03:30:47;;;;;;;4.00;3.80;;;18.10;38.00;;;;;;5048821;28;20676;-59
2022/03/01 03:33:13;;;;;;;4.10;3.80;;;18.10;37.90;;;;;;5044070;28;20231;-58
2022/03/01 03:35:38;;;;;;;3.70;3.50;;;18.10;38.00;;;;;;5045931;28;20261;-58
2022/03/01 03:38:04;;;;;;;3.53;3.33;;;18.00;37.80;;;;;;5047284;28;20664;-59
2022/03/01 03:40:29;;;;;;;3.50;3.17;;;18.10;37.90;;;;;;5045476;28;20802;-58
2022/03/01 03:42:55;;;;;;;3.63;3.43;;;18.10;38.70;;;;;;5045698;28;20233;-58
2022/03/01 03:45:21;;;;;;;3.70;3.50;;;18.10;37.90;;;;;;5048318;28;20226;-58
2022/03/01 03:47:46;;;;;;;6.50;3.50;;;18.10;37.90;;;;;;5045074;28;20277;-58
2022/03/01 03:50:12;;;;;;;3.80;3.60;;;18.10;37.90;;;;;;5044773;28;20253;-59
2022/03/01 03:52:39;;;;;;;4.07;3.83;;;18.10;38.00;;;;;;5046984;28;20572;-58
2022/03/01 03:55:06;;;;;;;3.33;3.13;;;18.10;38.00;;;;;;5038361;28;20285;-58
2022/03/01 03:57:33;;;;;;;3.80;3.50;;;18.00;37.90;;;;;;5051944;28;20449;-58
2022/03/01 04:00:00;;;;;;;3.50;3.20;;;18.10;37.90;;;;;;5045922;28;21035;-59
2022/03/01 04:02:26;;;;;;;3.70;3.50;;;18.10;37.90;;;;;;5044672;28;20448;-59
2022/03/01 04:04:51;;;;;;;3.57;3.27;;;18.00;37.80;;;;;;5048641;28;20942;-58
2022/03/01 04:07:17;;;;;;;3.50;3.30;;;18.00;37.80;;;;;;5045225;28;20444;-59
2022/03/01 04:09:43;;;;;;;4.10;3.80;;;18.00;38.60;;;;;;5046670;28;20632;-59
2022/03/01 04:12:08;;;;;;;3.90;3.70;;;18.00;37.80;;;;;;5042772;28;20241;-59
2022/03/01 04:14:34;;;;;;;3.93;3.73;;;18.00;37.80;;;;;;5048918;28;20218;-59
2022/03/01 04:17:01;;;;;;;3.60;3.40;;;18.00;37.80;;;;;;5042050;28;20222;-59
2022/03/01 04:19:26;;;;;;;2.90;2.70;;;18.00;37.80;;;;;;5043164;28;20558;-59
2022/03/01 04:21:52;;;;;;;3.33;3.13;;;18.10;37.90;;;;;;5045896;28;20497;-59
2022/03/01 04:24:17;;;;;;;3.30;3.10;;;18.00;37.80;;;;;;5045421;28;20745;-59
2022/03/01 04:26:43;;;;;;;3.87;3.33;;;18.10;37.90;;;;;;5043497;28;22717;-58
2022/03/01 04:29:09;;;;;;;3.37;3.17;;;18.00;37.80;;;;;;5044738;28;20691;-58
2022/03/01 04:31:35;;;;;;;3.30;3.10;;;18.10;37.80;;;;;;5042710;28;20463;-59
2022/03/01 04:34:01;;;;;;;3.30;3.10;;;18.00;37.70;;;;;;5039525;28;20229;-59
2022/03/01 04:36:27;;;;;;;3.30;3.10;;;18.10;37.70;;;;;;5046236;28;20218;-58
2022/03/01 04:38:53;;;;;;;3.70;3.50;;;18.10;37.70;;;;;;5042406;28;20443;-58
2022/03/01 04:41:19;;;;;;;3.73;3.53;;;18.00;37.70;;;;;;5044931;28;20414;-59
2022/03/01 04:43:45;;;;;;;3.60;3.40;;;18.00;37.50;;;;;;5047532;28;20222;-59
2022/03/01 04:46:11;;;;;;;3.27;3.07;;;18.00;37.60;;;;;;5045964;28;20272;-58
2022/03/01 04:48:37;;;;;;;3.90;3.70;;;18.10;37.70;;;;;;5037868;28;20950;-58
2022/03/01 04:51:04;;;;;;;3.10;2.90;;;18.10;37.80;;;;;;5049915;28;20215;-59
2022/03/01 04:53:30;;;;;;;3.73;3.43;;;18.00;37.60;;;;;;5041122;28;20440;-58
2022/03/01 04:55:56;;;;;;;3.50;3.30;;;18.00;37.60;;;;;;5036343;28;20433;-59
2022/03/01 04:58:21;;;;;;;3.07;2.87;;;18.10;37.60;;;;;;5048086;28;20444;-59
2022/03/01 05:00:47;;;;;;;3.40;3.20;;;18.10;37.70;;;;;;5046530;28;20303;-59
2022/03/01 05:03:12;;;;;;;3.23;3.03;;;18.00;37.50;;;;;;5044514;28;20217;-59
2022/03/01 05:05:38;;;;;;;3.90;3.60;;;18.10;37.60;;;;;;5041309;28;20219;-59
2022/03/01 05:08:04;;;;;;;3.20;3.00;;;18.00;37.50;;;;;;5045565;28;20308;-59
2022/03/01 05:10:29;;;;;;;3.37;3.17;;;18.10;37.60;;;;;;5040056;28;20664;-59
2022/03/01 05:12:58;;;;;;;3.90;3.60;;;18.10;37.60;;;;;;5043492;28;20313;-59
2022/03/01 05:15:26;;;;;;;3.50;3.30;;;18.10;37.60;;;;;;5042949;28;20310;-59
2022/03/01 05:17:53;;;;;;;3.30;3.10;;;18.10;38.30;;;;;;5045959;28;20448;-59
2022/03/01 05:20:20;;;;;;;3.80;3.60;;;18.10;37.60;;;;;;5042897;28;20524;-59
2022/03/01 05:22:46;;;;;;;2.93;2.73;;;18.10;37.60;;;;;;5050143;28;20436;-59
2022/03/01 05:25:15;;;;;;;3.07;2.90;;;18.10;37.60;;;;;;5041439;28;20948;-58
2022/03/01 05:27:43;;;;;;;3.20;3.00;;;18.10;37.60;;;;;;5036702;28;20514;-59
2022/03/01 05:30:11;;;;;;;3.63;3.43;;;18.10;37.60;;;;;;5046761;28;20516;-59
2022/03/01 05:32:38;;;;;;;3.80;3.60;;;18.10;37.60;;;;;;5037333;28;20534;-60
2022/03/01 05:35:04;;;;;;;3.67;3.47;;;18.10;37.60;;;;;;5047775;28;20436;-62
2022/03/01 05:37:30;;;;;;;3.30;3.10;;;18.10;37.60;;;;;;5044955;28;20414;-65
2022/03/01 05:39:56;;;;;;;3.30;3.10;;;18.10;37.60;;;;;;5038329;28;20820;-65
2022/03/01 05:42:23;;;;;;;3.60;3.40;;;18.10;37.60;;;;;;5041829;28;20461;-63
2022/03/01 05:44:49;;;;;;;2.63;2.53;;;18.20;37.60;;;;;;5042414;28;20222;-63
2022/03/01 05:47:15;;;;;;;3.07;2.87;;;18.20;37.60;;;;;;5039617;28;20407;-62
2022/03/01 05:49:42;;;;;;;3.33;3.13;;;18.20;37.60;;;;;;5039367;28;20420;-61
2022/03/01 05:52:07;;;;;;;3.10;2.90;;;18.20;37.60;;;;;;5043108;28;20235;-61
2022/03/01 05:54:33;;;;;;;3.57;3.27;;;18.20;37.60;;;;;;5045802;28;20763;-60
2022/03/01 05:56:58;;;;;;;3.50;3.30;;;18.20;37.60;;;;;;5042861;28;20219;-61
2022/03/01 05:59:24;;;;;;;3.10;2.90;;;18.20;37.60;;;;;;5046179;28;20269;-60
2022/03/01 06:01:50;;;;;;;3.43;3.23;;;18.20;37.60;;;;;;5039940;28;20215;-60
2022/03/01 06:04:15;;;;;;;3.60;3.40;;;18.20;37.60;;;;;;5041202;28;20222;-60
2022/03/01 06:06:41;;;;;;;3.30;3.10;;;18.20;37.60;;;;;;5048993;28;20562;-60
2022/03/01 06:09:06;;;;;;;3.40;3.20;;;18.20;37.60;;;;;;5054025;28;20249;-61
2022/03/01 06:11:32;;;;;;;2.90;2.70;;;18.20;37.60;;;;;;5046698;28;20249;-63
2022/03/01 06:13:58;;;;;;;4.20;3.33;;;18.20;37.60;;;;;;5050645;28;20233;-61
2022/03/01 06:16:23;;;;;;;2.70;2.53;;;18.30;37.70;;;;;;5050601;28;20225;-62
2022/03/01 06:18:49;;;;;;;2.80;2.60;;;18.20;37.60;;;;;;5047498;28;20237;-63
2022/03/01 06:21:15;;;;;;;3.80;3.60;;;18.20;37.60;;;;;;5047115;28;20223;-62
2022/03/01 06:23:40;;;;;;;3.00;2.80;;;18.30;37.70;;;;;;5040654;28;20276;-60
2022/03/01 06:26:06;;;;;;;3.23;3.03;;;18.30;37.70;;;;;;5049102;28;20648;-62
2022/03/01 06:28:32;;;;;;;3.10;2.90;;;18.30;37.70;;;;;;5045177;28;20239;-61
2022/03/01 06:30:58;;;;;;;3.33;3.13;;;18.30;37.70;;;;;;5043032;28;20481;-58
2022/03/01 06:33:24;;;;;;;3.43;3.23;;;18.30;37.70;;;;;;5044032;28;20289;-64
2022/03/01 06:35:49;;;;;;;2.97;2.77;;;18.30;37.70;;;;;;5049025;28;20301;-63
2022/03/01 06:38:15;;;;;;;3.87;2.70;;;18.30;37.70;;;;;;5044620;28;20217;-61
2022/03/01 06:40:41;;;;;;;3.20;2.90;;;18.20;37.60;;;;;;5042849;28;20233;-60
2022/03/01 06:43:06;;;;;;;3.03;2.83;;;18.30;37.70;;;;;;5046997;28;20305;-61
2022/03/01 06:45:32;;;;;;;2.90;2.70;;;18.30;37.70;;;;;;5040891;28;20651;-61
2022/03/01 06:47:58;;;;;;;2.90;2.70;;;18.30;37.70;;;;;;5046971;28;20254;-61
2022/03/01 06:50:25;;;;;;;3.30;3.10;;;18.20;37.60;;;;;;5047696;28;20605;-62
2022/03/01 06:52:51;;;;;;;3.17;2.97;;;18.20;37.60;;;;;;5046091;28;20430;-60
2022/03/01 06:55:16;;;;;;;3.50;3.30;;;18.30;37.70;;;;;;5052846;28;20949;-59
2022/03/01 06:57:43;;;;;;;3.53;3.33;;;18.30;37.70;;;;;;5049475;28;20211;-60
2022/03/01 07:00:11;;;;;;;3.80;3.40;;;18.20;37.60;;;;;;5049705;28;20222;-60
2022/03/01 07:02:40;;;;;;;2.90;2.80;;;18.30;37.70;;;;;;5042952;28;20455;-59
2022/03/01 07:05:11;;;;;;;2.90;2.70;;;18.30;37.70;;;;;;5046507;28;20766;-60
2022/03/01 07:07:37;;;;;;;3.00;2.87;;;18.30;37.70;;;;;;5041765;28;20566;-60
2022/03/01 07:10:04;;;;;;;3.00;2.80;;;18.30;37.70;;;;;;5046205;28;20782;-60
2022/03/01 07:12:30;;;;;;;3.10;2.80;;;18.30;37.70;;;;;;5047403;28;20316;-60
2022/03/01 07:14:56;;;;;;;3.03;2.83;;;18.30;37.70;;;;;;5050379;28;20851;-60
2022/03/01 07:17:22;;;;;;;3.37;3.17;;;18.30;37.70;;;;;;5047538;28;20227;-60
2022/03/01 07:19:49;;;;;;;2.63;2.53;;;18.30;37.70;;;;;;5047713;28;20222;-59
2022/03/01 07:22:15;;;;;;;3.77;3.37;;;18.30;37.70;;;;;;5047177;28;20238;-60
2022/03/01 07:24:41;;;;;;;2.50;2.40;;;18.30;37.70;;;;;;5046189;28;20483;-60
2022/03/01 07:27:06;;;;;;;5.53;3.30;;;18.30;37.70;;;;;;5048601;28;20985;-60
2022/03/01 07:29:36;;;;;;;2.90;2.80;;;18.30;37.70;;;;;;5046789;28;20218;-59
2022/03/01 07:32:05;;;;;;;3.30;3.10;;;18.30;37.70;;;;;;5047606;28;20269;-60
2022/03/01 07:34:30;;;;;;;3.23;3.03;;;18.30;37.70;;;;;;5048975;28;20437;-59
2022/03/01 07:36:57;;;;;;;3.23;3.03;;;18.30;37.70;;;;;;5049006;28;20816;-60
2022/03/01 07:39:23;;;;;;;2.70;2.60;;;18.30;38.40;;;;;;5045942;28;20219;-60
2022/03/01 07:41:50;;;;;;;3.40;3.10;;;18.30;37.70;;;;;;5047295;28;20513;-61
2022/03/01 07:44:16;;;;;;;2.83;2.63;;;18.30;37.70;;;;;;5047278;28;20415;-60
2022/03/01 07:46:41;;;;;;;3.40;3.20;;;18.30;37.70;;;;;;5045573;28;20434;-60
2022/03/01 07:49:07;;;;;;;3.03;2.83;;;18.30;37.70;;;;;;5046543;28;20772;-60
2022/03/01 07:51:33;;;;;;;3.40;3.20;;;18.30;37.70;;;;;;5046531;28;20710;-59
2022/03/01 07:53:58;;;;;;;3.53;3.23;;;18.30;37.70;;;;;;5050998;28;20211;-59
2022/03/01 07:56:25;;;;;;;3.00;2.80;;;18.30;37.80;;;;;;5049429;28;20237;-61
2022/03/01 07:58:51;;;;;;;3.10;2.90;;;18.30;37.70;;;;;;5050281;28;20227;-59
2022/03/01 08:01:18;;;;;;;3.20;3.00;;;18.30;37.70;;;;;;5043058;28;20429;-59
2022/03/01 08:03:44;;;;;;;2.40;2.30;;;18.30;37.70;;;;;;5048993;28;20487;-59
2022/03/01 08:06:09;;;;;;;3.00;2.80;;;18.30;37.70;;;;;;5047826;28;20427;-59
2022/03/01 08:08:35;;;;;;;3.10;2.93;;;18.30;37.70;;;;;;5046636;28;20210;-59
2022/03/01 08:11:01;;;;;;;3.30;3.10;;;18.30;37.70;;;;;;5048161;28;20687;-59
2022/03/01 08:13:27;;;;;;;2.33;2.23;;;18.30;37.70;;;;;;5051136;28;20352;-59
2022/03/01 08:15:52;;;;;;;3.53;3.33;;;18.30;37.70;;;;;;5047032;28;20687;-59
2022/03/01 08:18:18;;;;;;;3.23;3.03;;;18.30;37.70;;;;;;5042327;28;20307;-59
2022/03/01 08:20:44;;;;;;;3.30;3.10;;;18.30;37.70;;;;;;5048885;28;20233;-59
2022/03/01 08:23:10;;;;;;;3.03;2.83;;;18.30;37.70;;;;;;5044793;28;21124;-59
2022/03/01 08:25:36;;;;;;;3.10;2.93;;;18.30;37.80;;;;;;5041696;28;20219;-59
2022/03/01 08:28:02;;;;;;;3.00;2.80;;;18.30;37.70;;;;;;5046522;28;20223;-59
2022/03/01 08:30:29;;;;;;;2.80;2.60;;;18.30;37.70;;;;;;5046043;28;20507;-59
2022/03/01 08:32:55;;;;;;;3.20;3.00;;;18.30;37.70;;;;;;5047140;28;20477;-60
2022/03/01 08:35:22;;;;;;;2.57;2.40;;;18.30;37.70;;;;;;5045617;28;20438;-59
2022/03/01 08:37:48;;;;;;;2.87;2.67;;;18.30;37.70;;;;;;5042121;28;20501;-60
2022/03/01 08:40:14;;;;;;;2.63;2.53;;;18.30;37.70;;;;;;5040971;28;20409;-59
2022/03/01 08:42:41;;;;;;;2.87;2.77;;;18.30;37.70;;;;;;5042116;28;20436;-59
2022/03/01 08:45:07;;;;;;;3.17;2.97;;;18.30;37.70;;;;;;5042135;28;20452;-59
2022/03/01 08:47:33;;;;;;;3.07;2.87;;;18.30;37.70;;;;;;5047723;28;20436;-59
2022/03/01 08:50:00;;;;;;;3.00;2.80;;;18.30;37.70;;;;;;5045983;28;20447;-59
2022/03/01 08:52:26;;;;;;;3.47;3.27;;;18.30;37.70;;;;;;5044864;28;20797;-59
2022/03/01 08:54:52;;;;;;;3.03;2.83;;;18.30;37.70;;;;;;5050316;28;20410;-59
2022/03/01 08:57:18;;;;;;;3.30;3.00;;;18.30;37.70;;;;;;5045634;28;20451;-59
2022/03/01 08:59:43;;;;;;;3.07;2.87;;;18.30;37.70;;;;;;5048575;28;20218;-59
2022/03/01 09:02:09;;;;;;;2.97;2.77;;;18.30;37.70;;;;;;5047700;28;20713;-59
2022/03/01 09:04:35;;;;;;;3.30;3.10;;;18.30;37.70;;;;;;5047338;28;20215;-60
2022/03/01 09:07:03;;;;;;;3.30;3.10;;;18.30;37.70;;;;;;5042224;28;20269;-60
2022/03/01 09:09:30;;;;;;;2.73;2.53;;;18.30;37.70;;;;;;5050270;28;20218;-59
2022/03/01 09:11:56;;;;;;;3.30;3.10;;;18.30;37.70;;;;;;5046778;28;20435;-60
2022/03/01 09:14:21;;;;;;;3.23;3.03;;;18.30;37.70;;;;;;5047071;28;20760;-59
2022/03/01 09:16:47;;;;;;;3.10;2.83;;;18.30;37.70;;;;;;5042623;28;20214;-60
2022/03/01 09:19:14;;;;;;;3.47;3.27;;;18.30;37.70;;;;;;5044111;28;20713;-60
2022/03/01 09:21:40;;;;;;;3.70;3.40;;;18.30;37.70;;;;;;5047008;28;20283;-60
2022/03/01 09:24:05;;;;;;;3.33;3.13;;;18.30;37.70;;;;;;5043955;28;20452;-59
2022/03/01 09:26:31;;;;;;;2.97;2.77;;;18.30;37.70;;;;;;5044346;28;20214;-59
2022/03/01 09:28:57;;;;;;;3.20;3.00;;;18.30;37.70;;;;;;5047540;28;20227;-59
2022/03/01 09:31:22;;;;;;;3.60;3.30;;;18.30;37.70;;;;;;5045951;28;20321;-59
2022/03/01 09:33:48;;;;;;;3.77;3.57;;;18.30;37.70;;;;;;5047991;28;20309;-59
2022/03/01 09:36:14;;;;;;;3.40;3.10;;;18.30;37.70;;;;;;5042499;28;20573;-60
2022/03/01 09:38:41;;;;;;;3.03;2.83;;;18.30;37.70;;;;;;5039128;28;20665;-59
2022/03/01 09:41:08;;;;;;;3.30;3.10;;;18.30;37.70;;;;;;5045050;28;20442;-59
2022/03/01 09:43:37;;;;;;;3.00;2.80;;;18.30;37.70;;;;;;5044809;28;20442;-59
2022/03/01 09:46:07;;;;;;;4.23;3.20;;;18.30;37.70;;;;;;5049351;28;20996;-59
2022/03/01 09:48:33;;;;;;;3.00;2.80;;;18.30;37.70;;;;;;5047816;28;20430;-58
2022/03/01 09:51:01;;;;;;;2.83;2.63;;;18.20;37.60;;;;;;5046304;28;20497;-58
2022/03/01 09:53:27;;;;;;;3.20;3.00;;;18.20;37.60;;;;;;5043450;28;20430;-58
2022/03/01 09:55:54;;;;;;;3.20;3.00;;;18.20;38.40;;;;;;5045807;28;20423;-58
2022/03/01 09:58:20;;;;;;;3.13;2.93;;;18.20;37.60;;;;;;5043087;28;20463;-58
2022/03/01 10:00:47;;;;;;;3.50;3.30;;;18.30;37.70;;;;;;5041702;28;20435;-59
2022/03/01 10:03:18;;;;;;;3.33;3.03;;;18.20;37.60;;;;;;5046169;28;20454;-59
2022/03/01 10:05:44;;;;;;;3.33;3.13;;;18.20;37.60;;;;;;5045032;28;20431;-58
2022/03/01 10:08:15;;;;;;;2.80;2.60;;;18.20;37.60;;;;;;5048505;28;20456;-58
2022/03/01 10:10:53;;;;;;;3.33;3.13;;;18.20;37.60;;;;;;5046730;28;20438;-59
2022/03/01 10:13:27;;;;;;;3.17;2.97;;;18.20;37.60;;;;;;5046083;28;20435;-59
2022/03/01 10:16:11;;;;;;;3.90;3.60;;;18.20;37.60;;;;;;5043043;28;20414;-58
2022/03/01 10:18:39;;;;;;;4.53;2.90;;;18.20;37.60;;;;;;5047344;28;20429;-58
2022/03/01 10:21:13;;;;;;;3.27;3.07;;;18.20;37.60;;;;;;5043757;28;20448;-59
2022/03/01 10:23:51;;;;;;;3.17;2.97;;;18.20;37.60;;;;;;5040861;28;20424;-58
2022/03/01 10:26:23;;;;;;;2.70;2.50;;;18.20;37.60;;;;;;5046527;28;20421;-58
2022/03/01 10:28:50;;;;;;;3.60;3.30;;;18.20;37.60;;;;;;5046445;28;20438;-58
2022/03/01 10:31:20;;;;;;;2.80;2.60;;;18.20;37.60;;;;;;5041184;28;20499;-58
2022/03/01 10:34:06;;;;;;;2.80;2.60;;;18.20;38.40;;;;;;5048423;28;20418;-59
2022/03/01 10:36:47;;;;;;;3.03;2.83;;;18.20;37.60;;;;;;5042532;28;20994;-60
2022/03/01 10:39:27;;;;;;;3.67;3.43;;;18.20;37.60;;;;;;5040915;28;20454;-59
2022/03/01 10:41:52;;;;;;;3.10;2.90;;;18.20;37.60;;;;;;5045814;28;20535;-59
2022/03/01 10:44:21;;;;;;;2.77;2.57;;;18.20;37.60;;;;;;5048506;28;20895;-59
2022/03/01 10:46:54;;;;;;;3.00;2.80;;;18.20;37.60;;;;;;5043482;28;20309;-58
2022/03/01 10:49:34;;;;;;;3.17;2.90;;;18.20;37.60;;;;;;5046765;28;20448;-59
2022/03/01 10:52:08;;;;;;;2.87;2.67;;;18.20;37.60;;;;;;5041937;28;20874;-58
2022/03/01 10:54:39;;;;;;;2.87;2.67;;;18.20;37.60;;;;;;5042474;28;20437;-59
2022/03/01 10:57:08;;;;;;;2.70;2.60;;;18.20;37.60;;;;;;5045034;28;20911;-59
2022/03/01 10:59:36;;;;;;;3.30;3.10;;;18.20;37.60;;;;;;5045931;28;20418;-59
2022/03/01 11:02:02;;;;;;;2.80;2.60;;;18.20;37.60;;;;;;5047627;28;20430;-59
2022/03/01 11:04:28;;;;;;;3.30;3.10;;;18.20;37.60;;;;;;5050045;28;20434;-58
2022/03/01 11:06:59;;;;;;;2.93;2.73;;;18.20;37.60;;;;;;5048017;28;20422;-60
2022/03/01 11:09:28;;;;;;;3.40;3.10;;;18.20;37.60;;;;;;5046468;28;20464;-59
2022/03/01 11:11:55;;;;;;;2.87;2.67;;;18.20;37.60;;;;;;5046736;28;20425;-59
2022/03/01 11:14:35;;;;;;;3.30;3.10;;;18.20;37.60;;;;;;5045971;28;20544;-58
2022/03/01 11:17:18;;;;;;;3.20;2.90;;;18.20;37.60;;;;;;5049701;28;20426;-58
2022/03/01 11:19:55;;;;;;;3.30;3.00;;;18.20;37.60;;;;;;5051517;28;20600;-59
2022/03/01 11:22:52;;;;;;;2.83;2.63;;;18.20;37.60;;;;;;5045160;28;20562;-59
2022/03/01 11:25:20;;;;;;;3.17;2.97;;;18.20;37.60;;;;;;5043752;28;20445;-59
2022/03/01 11:27:48;;;;;;;3.03;2.83;;;18.20;37.70;;;;;;5047010;28;20447;-59
2022/03/01 11:30:15;;;;;;;2.73;2.53;;;18.20;37.60;;;;;;5042557;28;20443;-59
2022/03/01 11:32:45;;;;;;;2.80;2.60;;;18.20;37.60;;;;;;5044426;28;20434;-59
2022/03/01 11:35:26;;;;;;;2.70;2.60;;;18.20;37.60;;;;;;5048370;28;20511;-59
2022/03/01 11:38:11;;;;;;;3.60;3.40;;;18.20;37.60;;;;;;5045750;28;20903;-59
2022/03/01 11:40:40;;;;;;;3.63;3.43;;;18.20;37.60;;;;;;5049740;28;20437;-59
2022/03/01 11:43:10;;;;;;;3.30;3.10;;;18.20;37.60;;;;;;5048917;28;20484;-60
2022/03/01 11:45:37;;;;;;;2.97;2.77;;;18.20;37.60;;;;;;5048776;28;20466;-59
2022/03/01 11:48:12;;;;;;;2.90;2.70;;;18.20;37.60;;;;;;5046417;28;20418;-62
2022/03/01 11:50:49;;;;;;;2.70;2.50;;;18.10;37.60;;;;;;5047054;28;20445;-61
2022/03/01 11:53:18;;;;;;;2.90;2.73;;;18.20;37.60;;;;;;5045960;28;20529;-59
2022/03/01 11:55:56;;;;;;;4.03;2.80;;;18.20;37.60;;;;;;5042653;28;20441;-59
2022/03/01 11:58:23;;;;;;;2.90;2.70;;;18.20;37.60;;;;;;5045035;28;20421;-59
2022/03/01 12:00:50;;;;;;;2.97;2.77;;;18.20;37.60;;;;;;5050022;28;20489;-59
2022/03/01 12:03:19;;;;;;;3.40;2.70;;;18.20;37.60;;;;;;5047660;28;20497;-59
2022/03/01 12:05:47;;;;;;;3.07;2.50;;;18.20;37.60;;;;;;5048078;28;20432;-59
2022/03/01 12:08:14;;;;;;;3.10;2.90;;;18.20;37.60;;;;;;5041956;28;20881;-59
2022/03/01 12:10:52;;;;;;;3.10;2.90;;;18.20;37.60;;;;;;5047694;28;20434;-59
2022/03/01 12:13:18;;;;;;;2.83;2.63;;;18.20;37.60;;;;;;5045475;28;20432;-59
2022/03/01 12:15:53;;;;;;;2.73;2.63;;;18.20;38.40;;;;;;5047523;28;20438;-58
2022/03/01 12:18:30;;;;;;;2.23;2.13;;;18.20;37.60;;;;;;5048730;28;20317;-59
2022/03/01 12:21:05;;;;;;;3.03;2.73;;;18.20;37.60;;;;;;5050768;28;20535;-58
2022/03/01 12:23:32;;;;;;;2.80;2.70;;;18.20;37.60;;;;;;5046549;28;20418;-59
2022/03/01 12:26:04;;;;;;;2.77;2.57;;;18.20;37.60;;;;;;5048226;28;20455;-59
2022/03/01 12:28:43;;;;;;;3.03;2.83;;;18.20;37.60;;;;;;5043828;28;20550;-58
2022/03/01 12:31:22;;;;;;;2.67;2.47;;;18.20;37.60;;;;;;5045277;28;20513;-58
2022/03/01 12:33:53;;;;;;;2.90;2.70;;;18.20;37.60;;;;;;5046948;28;20471;-58
2022/03/01 12:36:39;;;;;;;2.73;2.53;;;18.20;37.60;;;;;;5058745;28;20861;-58
2022/03/01 12:39:09;;;;;;;2.93;2.73;;;18.20;37.60;;;;;;5047766;28;20953;-58
2022/03/01 12:41:35;;;;;;;2.80;2.70;;;18.20;37.60;;;;;;5051357;28;20564;-58
2022/03/01 12:44:04;;;;;;;3.47;3.27;;;18.20;37.60;;;;;;5045352;28;20459;-58
2022/03/01 12:46:31;;;;;;;3.00;2.80;;;18.20;37.60;;;;;;5045486;28;21072;-59
2022/03/01 12:48:58;;;;;;;2.43;2.23;;;18.20;37.60;;;;;;5045599;28;20423;-58